Forside
METAR-TAF:

METAR-TAF

Lufthavne :

Såtenäs, Sverige

Breddekreds: 58-26N, længdekreds: 012-42E, højde: 54 m

Aktuelle vejr

Denne rapport blev lavet for 41 minutter siden, kl. 01:50 UTC
Vind 5 kt fra nordnordvest
Temperatur 15°C
Fugtighed 94%
Tryk 1008 hPa
Sigt 10 km eller mere

METAR: ESIB 220150Z AUTO 33005KT 9999 SCT031/// OVC043/// 15/14 Q1008

Tid: 04:31 (02:31 UTC)

Vejrudsigter

Denne rapport blev lavet for 15 timer og 1 minutter siden, kl. 11:30 UTC
Foreløbig gælder fra 21 på 12 UTC til 21 på 15 UTC
Vind 8 kt fra sydsydvest
Sigt 10 km eller mere
Spredte skyer i en højde af 2500 ft
Midlertidig
fra 21 på 12 UTC til 21 på 15 UTC
Brudte skyer i en højde af 8000 ft, Cumulonimbus.
let regnbyger

TAF: ESIB 211130Z 2112/2115 21008KT 9999 SCT025 TEMPO 2112/2115 -SHRA BKN080CB RMK MIL

Vejrobservationer og prognoser fra mere end 4000 lufthavne (METAR og TAF).

De gule og røde prikker repræsenterer de meteorologiske stationer.

Flyt musen over at se navnet på stationen.

Så klik over at se vejr observationer og prognoser.

At skifte det kort: Klik på de grønne knapper med et sort kors for at zoome ind; på den grønne knap med en bindestreg for at zoome ud; eller på de grønne pile for tilstødende kort.


METAR-TAF: